Juliaetta, ID (83535)

4:15 PM PDT on August 21, 2014 (GMT -0700)
Lamb Road | Change Station
CLOSE
Current Station
Personal Weather Station
Location: Troy, ID
Elevation: 2677 ft
Nearby Weather Stations

Elev 2677 ft 46.72 °N, 116.77 °W | Updated 1 minute ago

Clear
Clear
79.8 °F
Feels Like 79 °F
N
9.0
Wind Variable Wind from SW

Today
High -- | Low -- °F
--% Chance of Precip.
Yesterday
High -- | Low -- °F
Precip. -- in
5:53 AM 7:46 PM
Waning Crescent, 11% visible
Pressure 29.83 in
Visibility 10.0 miles
Clouds Clear
Heat Index 79 °F
Dew Point 44 °F
Humidity 28%
Rainfall 0.00 in
Snow Depth 0 in
UV 5 out of 12
Pollen 6.90 out of 12
PM2.5 Good
Flu Activity Not available.
METAR KLWS 212256Z VRB03KT 10SM CLR 29/06 A2985 RMK AO2 SLP100 T02940061

More Conditions Fewer Conditions

Pressure 29.83 in
Visibility 10.0 miles
Clouds Clear
Heat Index 79 °F
Dew Point 44 °F
Humidity 28%
Rainfall 0.00 in
Snow Depth 0 in
UV 5 out of 12
Pollen 6.90 out of 12
PM2.5 Good
Flu Activity Not available.
METAR KLWS 212256Z VRB03KT 10SM CLR 29/06 A2985 RMK AO2 SLP100 T02940061

More Conditions Fewer Conditions

10-Day Weather Forecast

Almanac

Astronomy

Aug. 21, 2014 Rise Set
Actual Time 5:53 AM PDT 7:46 PM PDT
Civil Twilight 5:20 AM PDT 8:18 PM PDT
Nautical Twilight 4:40 AM PDT 8:58 PM PDT
Astronomical Twilight 3:57 AM PDT 9:41 PM PDT
Moon 2:21 AM PDT 5:23 PM PDT
Length of Visible Light 14h 57m
Length of Day
13h 53m
Tomorrow will be 3m 4s shorter.
Waning Crescent, 11% of the Moon is Illuminated
Today
Waning Crescent
Aug 25
New
Sep 2
First Quarter
Sep 8
Full
Sep 15
Last Quarter

Today's Extremes

State Highs State Lows

Community

WunderPhotos

Upload Photos

1,746,051 photos uploaded!

Nearby

Air Quality

  Air Quality AQ Index Pollutant
Yesterday Good
PM2.5
Current Good
PM2.5
Thursday Good
PM2.5
Friday Good
PM2.5
Saturday Good
PM2.5

Snow Depth

Station Depth Elevation
Moscow Mountain 0 in 4700 ft
Sherwin 0 in 3200 ft
Lost Lake 0 in 6110 ft
Humboldt Gulch 1 in 4250 ft
Sunset 0 in 5540 ft

Earthquake Activity

City Distance Mag. Time & Date
No recent earthquake activity has been reported nearby.
Minimum magnitude displayed is 2.5.

Coastal Water Temperatures

Place Temperature
No Stations Reporting

Nearby Weather Stations